Time;durP1;ratioP1;P1;durP2;ratioP2;P2;SDS_P1;SDS_P2;PMS_P1;PMS_P2;Temp;Humidity;BMP_temperature;BMP_pressure;BME280_temperature;BME280_humidity;BME280_pressure;Samples;Min_cycle;Max_cycle;Signal;HPM_P1;HPM_P2
2023/03/16 00:00:03;;;;;;;;;;;3.60;99.90;;;;;;4995382;28;20022;-88
2023/03/16 00:02:30;;;;;;;;;;;3.60;99.90;;;;;;4989616;28;19927;-89
2023/03/16 00:04:57;;;;;;;;;;;3.60;99.90;;;;;;4989405;28;19910;-90
2023/03/16 00:07:25;;;;;;;;;;;3.50;99.90;;;;;;4990436;28;19941;-88
2023/03/16 00:09:53;;;;;;;;;;;3.60;99.90;;;;;;4991482;28;20143;-87
2023/03/16 00:12:21;;;;;;;;;;;3.60;99.90;;;;;;4992134;28;19922;-89
2023/03/16 00:14:49;;;;;;;;;;;3.50;99.90;;;;;;4991292;28;19910;-89
2023/03/16 00:17:18;;;;;;;;;;;3.60;99.90;;;;;;4993500;28;19909;-90
2023/03/16 00:19:46;;;;;;;;;;;3.50;99.90;;;;;;5009303;28;19922;-87
2023/03/16 00:22:14;;;;;;;;;;;3.50;99.90;;;;;;4986856;28;19921;-90
2023/03/16 00:24:43;;;;;;;;;;;3.50;99.90;;;;;;4990754;28;19930;-90
2023/03/16 00:27:13;;;;;;;;;;;3.50;99.90;;;;;;4989716;28;19914;-89
2023/03/16 00:29:46;;;;;;;;;;;3.50;99.90;;;;;;4990569;28;19929;-89
2023/03/16 00:32:18;;;;;;;;;;;3.50;99.90;;;;;;4992197;28;19922;-88
2023/03/16 00:34:46;;;;;;;;;;;3.50;99.90;;;;;;5004085;28;19944;-89
2023/03/16 00:37:14;;;;;;;;;;;3.40;99.90;;;;;;5000515;28;19938;-88
2023/03/16 00:39:41;;;;;;;;;;;3.40;99.90;;;;;;4993439;28;19986;-89
2023/03/16 00:42:08;;;;;;;;;;;3.40;99.90;;;;;;5012597;28;19931;-89
2023/03/16 00:44:35;;;;;;;;;;;3.40;99.90;;;;;;4994905;28;19953;-90
2023/03/16 00:47:02;;;;;;;;;;;3.40;99.90;;;;;;5009132;28;19937;-89
2023/03/16 00:49:33;;;;;;;;;;;3.40;99.90;;;;;;4997766;28;19929;-90
2023/03/16 00:52:00;;;;;;;;;;;3.40;99.90;;;;;;4994710;28;19914;-86
2023/03/16 00:54:27;;;;;;;;;;;3.40;99.90;;;;;;4992947;28;19914;-90
2023/03/16 00:56:55;;;;;;;;;;;3.40;99.90;;;;;;4999471;28;19917;-88
2023/03/16 00:59:21;;;;;;;;;;;3.40;99.90;;;;;;4989822;28;19934;-89
2023/03/16 01:01:48;;;;;;;;;;;3.40;99.90;;;;;;4990591;28;19934;-89
2023/03/16 01:04:15;;;;;;;;;;;3.40;99.90;;;;;;5013516;28;19914;-89
2023/03/16 01:06:44;;;;;;;;;;;3.30;99.90;;;;;;5006541;28;19921;-88
2023/03/16 01:09:11;;;;;;;;;;;3.30;99.90;;;;;;4999229;28;19930;-90
2023/03/16 01:11:38;;;;;;;;;;;3.30;99.90;;;;;;4992918;28;19914;-89
2023/03/16 01:14:05;;;;;;;;;;;3.30;99.90;;;;;;4998863;28;19930;-89
2023/03/16 01:16:33;;;;;;;;;;;3.30;99.90;;;;;;4991945;28;19940;-89
2023/03/16 01:19:00;;;;;;;;;;;3.30;99.90;;;;;;4990118;28;19977;-89
2023/03/16 01:21:28;;;;;;;;;;;3.20;99.90;;;;;;4995495;28;19910;-89
2023/03/16 01:23:56;;;;;;;;;;;3.30;99.90;;;;;;4997067;28;19973;-88
2023/03/16 01:26:24;;;;;;;;;;;3.30;99.90;;;;;;4988167;28;19914;-89
2023/03/16 01:28:51;;;;;;;;;;;3.30;99.90;;;;;;4992203;28;19914;-89
2023/03/16 01:31:18;;;;;;;;;;;3.30;99.90;;;;;;4995592;28;19934;-89
2023/03/16 01:33:45;;;;;;;;;;;3.20;99.90;;;;;;5000963;28;19945;-88
2023/03/16 01:36:16;;;;;;;;;;;3.20;99.90;;;;;;4992430;28;19941;-88
2023/03/16 01:38:51;;;;;;;;;;;3.20;99.90;;;;;;4993996;28;19929;-89
2023/03/16 01:41:20;;;;;;;;;;;3.20;99.90;;;;;;4997154;28;19916;-89
2023/03/16 01:43:47;;;;;;;;;;;3.20;99.90;;;;;;4995348;28;19914;-87
2023/03/16 01:46:20;;;;;;;;;;;3.20;99.90;;;;;;4996786;28;19936;-89
2023/03/16 01:48:52;;;;;;;;;;;3.20;99.90;;;;;;4996091;28;19938;-88
2023/03/16 01:51:23;;;;;;;;;;;3.20;99.90;;;;;;4994944;28;19957;-88
2023/03/16 01:53:52;;;;;;;;;;;3.20;99.90;;;;;;5003185;28;19937;-89
2023/03/16 01:56:25;;;;;;;;;;;3.20;99.90;;;;;;5010671;28;20020;-89
2023/03/16 01:58:57;;;;;;;;;;;3.20;99.90;;;;;;4996140;28;20005;-88
2023/03/16 02:01:25;;;;;;;;;;;3.20;99.90;;;;;;4995474;28;19914;-89
2023/03/16 02:03:55;;;;;;;;;;;3.10;99.90;;;;;;4995646;28;19961;-87
2023/03/16 02:06:23;;;;;;;;;;;3.20;99.90;;;;;;4978487;28;19997;-89
2023/03/16 02:08:55;;;;;;;;;;;3.10;99.90;;;;;;4995997;28;19941;-87
2023/03/16 02:11:24;;;;;;;;;;;3.10;99.90;;;;;;4985034;28;19924;-88
2023/03/16 02:14:09;;;;;;;;;;;3.10;99.90;;;;;;4999118;28;19922;-89
2023/03/16 02:16:36;;;;;;;;;;;3.10;99.90;;;;;;4992447;28;19934;-88
2023/03/16 02:19:06;;;;;;;;;;;3.10;99.90;;;;;;4996691;28;19922;-88
2023/03/16 02:21:35;;;;;;;;;;;3.10;99.90;;;;;;4992566;28;19925;-89
2023/03/16 02:24:04;;;;;;;;;;;3.10;99.90;;;;;;4978536;28;19921;-89
2023/03/16 02:26:35;;;;;;;;;;;3.10;99.90;;;;;;4994587;28;19942;-88
2023/03/16 02:29:10;;;;;;;;;;;3.10;99.90;;;;;;4994997;28;19924;-88
2023/03/16 02:31:39;;;;;;;;;;;3.00;99.90;;;;;;4995500;28;19923;-88
2023/03/16 02:34:06;;;;;;;;;;;3.00;99.90;;;;;;5009854;28;19914;-88
2023/03/16 02:36:39;;;;;;;;;;;3.00;99.90;;;;;;5008497;28;19946;-87
2023/03/16 02:39:06;;;;;;;;;;;3.00;99.90;;;;;;4993465;28;19924;-87
2023/03/16 02:41:41;;;;;;;;;;;3.00;99.90;;;;;;4998965;28;19914;-88
2023/03/16 02:44:13;;;;;;;;;;;3.00;99.90;;;;;;4996000;28;19925;-87
2023/03/16 02:46:43;;;;;;;;;;;3.00;99.90;;;;;;4994291;28;20252;-88
2023/03/16 02:49:15;;;;;;;;;;;3.00;99.90;;;;;;4994568;28;19914;-88
2023/03/16 02:51:42;;;;;;;;;;;3.00;99.90;;;;;;4994334;28;19922;-88
2023/03/16 02:54:09;;;;;;;;;;;3.00;99.90;;;;;;4993306;28;19921;-86
2023/03/16 02:56:36;;;;;;;;;;;3.00;99.90;;;;;;4998617;28;19944;-89
2023/03/16 02:59:03;;;;;;;;;;;3.00;99.90;;;;;;4993636;28;19949;-88
2023/03/16 03:01:33;;;;;;;;;;;3.00;99.90;;;;;;4990280;28;19914;-89
2023/03/16 03:04:03;;;;;;;;;;;3.00;99.90;;;;;;5006693;28;19910;-88
2023/03/16 03:06:32;;;;;;;;;;;2.90;99.90;;;;;;4993577;28;19945;-88
2023/03/16 03:08:59;;;;;;;;;;;2.90;99.90;;;;;;4990285;28;20004;-89
2023/03/16 03:11:26;;;;;;;;;;;2.90;99.90;;;;;;5007417;28;19921;-85
2023/03/16 03:13:54;;;;;;;;;;;2.90;99.90;;;;;;4991235;28;19925;-89
2023/03/16 03:16:23;;;;;;;;;;;2.90;99.90;;;;;;4993171;28;20135;-88
2023/03/16 03:18:52;;;;;;;;;;;2.90;99.90;;;;;;4994619;28;19925;-88
2023/03/16 03:21:22;;;;;;;;;;;2.90;99.90;;;;;;4991600;28;19914;-87
2023/03/16 03:23:50;;;;;;;;;;;2.90;99.90;;;;;;4997898;28;20162;-89
2023/03/16 03:26:17;;;;;;;;;;;2.80;99.90;;;;;;4997894;28;19910;-87
2023/03/16 03:28:45;;;;;;;;;;;2.80;99.90;;;;;;4996929;28;19941;-87
2023/03/16 03:31:14;;;;;;;;;;;2.80;99.90;;;;;;4996737;28;19997;-87
2023/03/16 03:33:44;;;;;;;;;;;2.90;99.90;;;;;;4998846;28;19970;-88
2023/03/16 03:36:12;;;;;;;;;;;2.80;99.90;;;;;;5007792;28;19973;-86
2023/03/16 03:38:43;;;;;;;;;;;2.80;99.90;;;;;;4994637;28;20259;-88
2023/03/16 03:41:10;;;;;;;;;;;2.80;99.90;;;;;;5010125;28;19914;-87
2023/03/16 03:43:39;;;;;;;;;;;2.80;99.90;;;;;;4994744;28;19937;-88
2023/03/16 03:46:08;;;;;;;;;;;2.80;99.90;;;;;;4993761;28;19930;-89
2023/03/16 03:48:35;;;;;;;;;;;2.70;99.90;;;;;;5010042;28;19916;-88
2023/03/16 03:51:04;;;;;;;;;;;2.70;99.90;;;;;;4994243;28;20051;-86
2023/03/16 03:53:31;;;;;;;;;;;2.70;99.90;;;;;;4995467;28;19962;-87
2023/03/16 03:56:17;;;;;;;;;;;2.70;99.90;;;;;;4993593;28;19913;-88
2023/03/16 03:58:45;;;;;;;;;;;2.70;99.90;;;;;;4993110;28;19922;-87
2023/03/16 04:01:15;;;;;;;;;;;2.70;99.90;;;;;;4993945;28;19914;-87
2023/03/16 04:03:43;;;;;;;;;;;2.60;99.90;;;;;;4993478;28;19926;-89
2023/03/16 04:06:10;;;;;;;;;;;2.70;99.90;;;;;;4977906;28;19989;-87
2023/03/16 04:08:37;;;;;;;;;;;2.70;99.90;;;;;;4992987;28;19986;-87
2023/03/16 04:11:09;;;;;;;;;;;2.60;99.90;;;;;;4993137;28;19914;-89
2023/03/16 04:13:38;;;;;;;;;;;2.60;99.90;;;;;;4993403;28;19945;-86
2023/03/16 04:16:06;;;;;;;;;;;2.60;99.90;;;;;;4992705;28;19986;-87
2023/03/16 04:18:40;;;;;;;;;;;2.60;99.90;;;;;;4996550;28;19949;-86
2023/03/16 04:21:14;;;;;;;;;;;2.60;99.90;;;;;;4995327;28;19914;-88
2023/03/16 04:23:42;;;;;;;;;;;2.60;99.90;;;;;;5014900;28;19914;-87
2023/03/16 04:26:09;;;;;;;;;;;2.60;99.90;;;;;;5000239;28;19918;-87
2023/03/16 04:28:38;;;;;;;;;;;2.60;99.90;;;;;;5002681;23;19924;-74
2023/03/16 04:31:06;;;;;;;;;;;2.60;99.90;;;;;;4965445;28;20371;-73
2023/03/16 04:33:38;;;;;;;;;;;2.60;99.90;;;;;;4987796;28;19980;-73
2023/03/16 04:36:05;;;;;;;;;;;2.60;99.90;;;;;;5001189;28;19932;-73
2023/03/16 04:38:33;;;;;;;;;;;2.60;99.90;;;;;;5006119;28;19926;-74
2023/03/16 04:41:02;;;;;;;;;;;2.50;99.90;;;;;;5020916;28;19925;-74
2023/03/16 04:43:34;;;;;;;;;;;2.50;99.90;;;;;;5002699;28;20574;-75
2023/03/16 04:46:08;;;;;;;;;;;2.50;99.90;;;;;;4993861;28;19941;-73
2023/03/16 04:48:35;;;;;;;;;;;2.50;99.90;;;;;;4986745;28;19934;-73
2023/03/16 04:51:05;;;;;;;;;;;2.50;99.90;;;;;;5001849;28;19942;-74
2023/03/16 04:53:34;;;;;;;;;;;2.50;99.90;;;;;;5007779;28;20301;-75
2023/03/16 04:56:08;;;;;;;;;;;2.50;99.90;;;;;;5001180;28;19933;-71
2023/03/16 04:58:35;;;;;;;;;;;2.50;99.90;;;;;;5001725;28;20703;-71
2023/03/16 05:01:03;;;;;;;;;;;2.50;99.90;;;;;;5004126;28;19940;-71
2023/03/16 05:03:33;;;;;;;;;;;2.50;99.90;;;;;;4986363;28;19934;-71
2023/03/16 05:06:01;;;;;;;;;;;2.40;99.90;;;;;;5000379;28;20393;-72
2023/03/16 05:08:30;;;;;;;;;;;2.40;99.90;;;;;;4982454;28;19984;-71
2023/03/16 05:10:58;;;;;;;;;;;2.40;99.90;;;;;;5000276;28;19957;-74
2023/03/16 05:13:26;;;;;;;;;;;2.40;99.90;;;;;;5000738;28;19956;-73
2023/03/16 05:15:54;;;;;;;;;;;2.40;99.90;;;;;;4984267;28;19934;-73
2023/03/16 05:18:28;;;;;;;;;;;2.40;99.90;;;;;;5004309;28;19934;-71
2023/03/16 05:20:56;;;;;;;;;;;2.40;99.90;;;;;;5003603;28;19933;-73
2023/03/16 05:23:28;;;;;;;;;;;2.40;99.90;;;;;;4992963;28;20021;-72
2023/03/16 05:26:00;;;;;;;;;;;2.40;99.90;;;;;;5003732;28;20012;-71
2023/03/16 05:28:28;;;;;;;;;;;2.40;99.90;;;;;;4992760;28;20008;-72
2023/03/16 05:31:05;;;;;;;;;;;2.40;99.90;;;;;;5002995;28;19948;-71
2023/03/16 05:33:38;;;;;;;;;;;2.30;99.90;;;;;;5012386;28;19926;-71
2023/03/16 05:36:11;;;;;;;;;;;2.30;99.90;;;;;;4982516;28;19957;-71
2023/03/16 05:38:41;;;;;;;;;;;2.30;99.90;;;;;;4999650;28;20392;-71
2023/03/16 05:41:11;;;;;;;;;;;2.30;99.90;;;;;;4991873;28;19988;-72
2023/03/16 05:44:10;;;;;;;;;;;2.30;99.90;;;;;;4957427;28;19930;-71
2023/03/16 05:46:55;;;;;;;;;;;2.30;99.90;;;;;;4989580;28;19929;-71
2023/03/16 05:49:22;;;;;;;;;;;2.30;99.90;;;;;;5004317;28;19926;-72
2023/03/16 05:51:51;;;;;;;;;;;2.30;99.90;;;;;;4988788;28;20331;-72
2023/03/16 05:54:18;;;;;;;;;;;2.30;99.90;;;;;;5001632;28;19977;-72
2023/03/16 05:56:46;;;;;;;;;;;2.30;99.90;;;;;;4990153;28;20076;-72
2023/03/16 05:59:14;;;;;;;;;;;2.30;99.90;;;;;;4974191;28;19940;-72
2023/03/16 06:01:42;;;;;;;;;;;2.20;99.90;;;;;;5002873;28;20024;-71
2023/03/16 06:04:08;;;;;;;;;;;2.20;99.90;;;;;;4996285;28;22045;-72
2023/03/16 06:06:39;;;;;;;;;;;2.30;99.90;;;;;;4990010;28;20212;-71
2023/03/16 06:09:21;;;;;;;;;;;2.20;99.90;;;;;;5000096;28;19926;-72
2023/03/16 06:11:48;;;;;;;;;;;2.20;99.90;;;;;;5004437;28;19925;-72
2023/03/16 06:14:17;;;;;;;;;;;2.20;99.90;;;;;;4998479;28;19961;-72
2023/03/16 06:16:44;;;;;;;;;;;2.20;99.90;;;;;;5001190;28;20434;-72
2023/03/16 06:19:12;;;;;;;;;;;2.20;99.90;;;;;;4998395;28;19932;-73
2023/03/16 06:21:39;;;;;;;;;;;2.20;99.90;;;;;;4999158;28;19941;-74
2023/03/16 06:24:10;;;;;;;;;;;2.20;99.90;;;;;;5001132;28;19929;-73
2023/03/16 06:26:38;;;;;;;;;;;2.20;99.90;;;;;;4998333;28;20416;-72
2023/03/16 06:29:08;;;;;;;;;;;2.10;99.90;;;;;;5004047;28;19996;-73
2023/03/16 06:31:37;;;;;;;;;;;2.10;99.90;;;;;;4995353;28;19936;-73
2023/03/16 06:34:04;;;;;;;;;;;2.10;99.90;;;;;;5001902;28;20028;-72
2023/03/16 06:36:32;;;;;;;;;;;2.10;99.90;;;;;;4990268;28;19925;-72
2023/03/16 06:39:01;;;;;;;;;;;2.10;99.90;;;;;;4988179;28;19938;-72
2023/03/16 06:41:50;;;;;;;;;;;2.10;99.90;;;;;;4986240;28;20012;-72
2023/03/16 06:44:17;;;;;;;;;;;2.10;99.90;;;;;;5002396;28;19979;-72
2023/03/16 06:46:59;;;;;;;;;;;2.20;99.90;;;;;;5002087;28;20017;-72
2023/03/16 06:49:27;;;;;;;;;;;2.20;99.90;;;;;;4990884;28;19930;-72
2023/03/16 06:51:53;;;;;;;;;;;2.10;99.90;;;;;;4980032;28;19934;-73
2023/03/16 06:54:22;;;;;;;;;;;2.20;99.90;;;;;;5002281;28;19937;-73
2023/03/16 06:56:51;;;;;;;;;;;2.10;99.90;;;;;;4981802;28;20491;-73
2023/03/16 06:59:18;;;;;;;;;;;2.10;99.90;;;;;;4989059;28;20312;-73
2023/03/16 07:01:44;;;;;;;;;;;2.20;99.90;;;;;;4983222;28;19934;-72
2023/03/16 07:04:11;;;;;;;;;;;2.10;99.90;;;;;;4983884;28;19969;-73
2023/03/16 07:06:40;;;;;;;;;;;2.20;99.90;;;;;;5001441;28;19937;-73
2023/03/16 07:09:07;;;;;;;;;;;2.20;99.90;;;;;;4984628;28;19935;-73
2023/03/16 07:11:35;;;;;;;;;;;2.10;99.90;;;;;;5003403;28;20023;-72
2023/03/16 07:14:03;;;;;;;;;;;2.20;99.90;;;;;;4977428;28;19934;-72
2023/03/16 07:16:32;;;;;;;;;;;2.20;99.90;;;;;;4986244;28;19969;-73
2023/03/16 07:19:01;;;;;;;;;;;2.20;99.90;;;;;;5000583;28;19926;-72
2023/03/16 07:21:28;;;;;;;;;;;2.20;99.90;;;;;;4983775;28;19976;-72
2023/03/16 07:23:55;;;;;;;;;;;2.20;99.90;;;;;;4999862;28;19944;-73
2023/03/16 07:26:25;;;;;;;;;;;2.20;99.90;;;;;;5003792;28;19929;-73
2023/03/16 07:28:55;;;;;;;;;;;2.20;99.90;;;;;;4984895;28;19934;-73
2023/03/16 07:31:24;;;;;;;;;;;2.20;99.90;;;;;;4999825;28;19925;-73
2023/03/16 07:33:50;;;;;;;;;;;2.20;99.90;;;;;;4988641;28;19952;-73
2023/03/16 07:36:26;;;;;;;;;;;2.20;99.90;;;;;;5000830;28;19961;-73
2023/03/16 07:38:57;;;;;;;;;;;2.20;99.90;;;;;;4985007;28;19968;-73
2023/03/16 07:41:24;;;;;;;;;;;2.20;99.90;;;;;;4989925;28;19925;-73
2023/03/16 07:43:51;;;;;;;;;;;2.20;99.90;;;;;;5002705;28;20021;-73
2023/03/16 07:46:19;;;;;;;;;;;2.20;99.90;;;;;;4986625;28;20013;-73
2023/03/16 07:48:48;;;;;;;;;;;2.20;99.90;;;;;;4989499;28;19930;-73
2023/03/16 07:51:15;;;;;;;;;;;2.20;99.90;;;;;;5001169;28;19940;-73
2023/03/16 07:53:46;;;;;;;;;;;2.20;99.90;;;;;;4992431;28;19976;-73
2023/03/16 07:56:18;;;;;;;;;;;2.30;99.90;;;;;;5007776;28;20407;-73
2023/03/16 07:58:47;;;;;;;;;;;2.30;99.90;;;;;;5003687;28;20459;-73
2023/03/16 08:01:15;;;;;;;;;;;2.20;99.90;;;;;;5008657;28;20361;-73
2023/03/16 08:03:42;;;;;;;;;;;2.30;99.90;;;;;;4992131;28;19925;-72
2023/03/16 08:06:11;;;;;;;;;;;2.20;99.90;;;;;;5002919;28;19926;-72
2023/03/16 08:08:38;;;;;;;;;;;2.30;99.90;;;;;;5005580;28;19941;-72
2023/03/16 08:11:05;;;;;;;;;;;2.30;99.90;;;;;;5007751;28;19933;-72
2023/03/16 08:13:53;;;;;;;;;;;2.30;99.90;;;;;;5005557;28;19926;-72
2023/03/16 08:16:20;;;;;;;;;;;2.30;99.90;;;;;;4981943;28;19926;-72
2023/03/16 08:18:48;;;;;;;;;;;2.30;99.90;;;;;;4987870;28;19934;-73
2023/03/16 08:21:17;;;;;;;;;;;2.30;99.90;;;;;;5015724;28;19941;-72
2023/03/16 08:23:47;;;;;;;;;;;2.30;99.90;;;;;;5013180;28;19925;-72
2023/03/16 08:26:16;;;;;;;;;;;2.30;99.90;;;;;;5009388;28;20362;-73
2023/03/16 08:28:46;;;;;;;;;;;2.30;99.90;;;;;;5003401;28;20028;-72
2023/03/16 08:31:13;;;;;;;;;;;2.30;99.90;;;;;;4987131;28;19930;-73
2023/03/16 08:33:49;;;;;;;;;;;2.30;99.90;;;;;;5005675;28;20013;-72
2023/03/16 08:36:21;;;;;;;;;;;2.30;99.90;;;;;;5004309;28;20023;-72
2023/03/16 08:38:53;;;;;;;;;;;2.30;99.90;;;;;;5005321;28;19925;-72
2023/03/16 08:41:20;;;;;;;;;;;2.40;99.90;;;;;;5004868;28;19930;-72
2023/03/16 08:43:48;;;;;;;;;;;2.40;99.90;;;;;;4987150;28;19980;-72
2023/03/16 08:46:15;;;;;;;;;;;2.40;99.90;;;;;;4992130;28;19926;-72
2023/03/16 08:48:48;;;;;;;;;;;2.40;99.90;;;;;;5003918;28;20337;-73
2023/03/16 08:51:16;;;;;;;;;;;2.40;99.90;;;;;;4999279;28;19929;-73
2023/03/16 08:53:44;;;;;;;;;;;2.40;99.90;;;;;;4991430;28;19938;-73
2023/03/16 08:56:13;;;;;;;;;;;2.40;99.90;;;;;;4987845;28;19930;-72
2023/03/16 08:58:44;;;;;;;;;;;2.40;99.90;;;;;;4999232;28;19925;-72
2023/03/16 09:01:11;;;;;;;;;;;2.40;99.90;;;;;;4986267;28;19938;-73
2023/03/16 09:03:39;;;;;;;;;;;2.40;99.90;;;;;;4998772;28;19930;-72
2023/03/16 09:06:08;;;;;;;;;;;2.40;99.90;;;;;;4988540;28;20016;-72
2023/03/16 09:08:35;;;;;;;;;;;2.50;99.90;;;;;;4987218;28;19926;-72
2023/03/16 09:11:04;;;;;;;;;;;2.50;99.90;;;;;;4988333;28;19934;-73
2023/03/16 09:13:31;;;;;;;;;;;2.50;99.90;;;;;;4988055;28;19934;-74
2023/03/16 09:15:58;;;;;;;;;;;2.50;99.90;;;;;;4989314;28;19929;-73
2023/03/16 09:18:26;;;;;;;;;;;2.50;99.90;;;;;;4989719;28;19934;-73
2023/03/16 09:20:53;;;;;;;;;;;2.50;99.90;;;;;;4980231;28;20384;-73
2023/03/16 09:23:20;;;;;;;;;;;2.50;99.90;;;;;;4992015;28;19934;-74
2023/03/16 09:25:46;;;;;;;;;;;2.50;99.90;;;;;;5004311;28;19965;-74
2023/03/16 09:28:16;;;;;;;;;;;2.50;99.90;;;;;;4991491;28;19925;-74
2023/03/16 09:30:43;;;;;;;;;;;2.50;99.90;;;;;;4981943;28;19925;-73
2023/03/16 09:33:10;;;;;;;;;;;2.50;99.90;;;;;;4989340;28;19934;-73
2023/03/16 09:35:37;;;;;;;;;;;2.50;99.90;;;;;;4989874;28;20407;-73
2023/03/16 09:38:04;;;;;;;;;;;2.50;99.90;;;;;;4982754;28;19930;-75
2023/03/16 09:40:32;;;;;;;;;;;2.60;99.90;;;;;;4973856;28;20884;-72
2023/03/16 09:43:08;;;;;;;;;;;2.60;99.90;;;;;;4990058;28;21542;-73
2023/03/16 09:45:38;;;;;;;;;;;2.60;99.90;;;;;;4995285;28;19981;-73
2023/03/16 09:48:08;;;;;;;;;;;2.60;99.90;;;;;;4990324;28;19926;-73
2023/03/16 09:50:37;;;;;;;;;;;2.60;99.90;;;;;;4987146;28;19934;-73
2023/03/16 09:53:08;;;;;;;;;;;2.60;99.90;;;;;;4988446;28;19933;-73
2023/03/16 09:55:36;;;;;;;;;;;2.60;99.90;;;;;;4987226;28;19929;-73
2023/03/16 09:58:05;;;;;;;;;;;2.60;99.90;;;;;;4987024;28;20036;-73
2023/03/16 10:00:36;;;;;;;;;;;2.70;99.90;;;;;;4989685;28;19941;-73
2023/03/16 10:03:12;;;;;;;;;;;2.60;99.90;;;;;;4987946;28;19977;-73
2023/03/16 10:05:39;;;;;;;;;;;2.70;99.90;;;;;;4985104;28;19926;-72
2023/03/16 10:08:08;;;;;;;;;;;2.70;99.90;;;;;;4986216;28;19933;-73
2023/03/16 10:10:43;;;;;;;;;;;2.70;99.90;;;;;;4979628;28;19925;-73
2023/03/16 10:13:16;;;;;;;;;;;2.70;99.90;;;;;;4985927;28;19926;-73
2023/03/16 10:15:44;;;;;;;;;;;2.70;99.90;;;;;;4982352;28;20411;-73
2023/03/16 10:18:15;;;;;;;;;;;2.70;99.90;;;;;;4949748;28;20025;-73
2023/03/16 10:20:44;;;;;;;;;;;2.70;99.90;;;;;;4977747;28;19934;-73
2023/03/16 10:23:14;;;;;;;;;;;2.80;99.90;;;;;;4975796;28;19998;-73
2023/03/16 10:25:43;;;;;;;;;;;2.80;99.90;;;;;;5002475;28;19940;-73
2023/03/16 10:28:11;;;;;;;;;;;2.80;99.90;;;;;;4993909;28;19969;-73
2023/03/16 10:30:39;;;;;;;;;;;2.80;99.90;;;;;;4987190;28;19976;-74
2023/03/16 10:33:14;;;;;;;;;;;2.80;99.90;;;;;;4985624;28;20018;-73
2023/03/16 10:35:48;;;;;;;;;;;2.80;99.90;;;;;;4982276;28;19926;-73
2023/03/16 10:38:37;;;;;;;;;;;2.90;99.90;;;;;;4974177;28;19933;-75
2023/03/16 10:41:06;;;;;;;;;;;2.80;99.90;;;;;;4980486;28;19934;-75
2023/03/16 10:43:35;;;;;;;;;;;2.90;99.90;;;;;;4984598;28;19925;-73
2023/03/16 10:46:02;;;;;;;;;;;2.90;99.90;;;;;;4976975;28;20402;-73
2023/03/16 10:48:32;;;;;;;;;;;2.90;99.90;;;;;;4977314;28;20442;-73
2023/03/16 10:51:02;;;;;;;;;;;3.00;99.90;;;;;;4979356;28;19961;-73
2023/03/16 10:53:30;;;;;;;;;;;2.90;99.90;;;;;;4985123;28;19926;-73
2023/03/16 10:55:57;;;;;;;;;;;3.00;99.90;;;;;;4982605;28;19929;-74
2023/03/16 10:58:25;;;;;;;;;;;3.00;99.90;;;;;;4983169;28;19933;-73
2023/03/16 11:00:52;;;;;;;;;;;3.00;99.90;;;;;;4989006;28;20596;-73
2023/03/16 11:03:21;;;;;;;;;;;3.00;99.90;;;;;;4986459;28;19925;-73
2023/03/16 11:05:56;;;;;;;;;;;3.10;99.90;;;;;;4992460;28;20393;-74
2023/03/16 11:08:26;;;;;;;;;;;3.10;99.90;;;;;;4978876;28;19965;-73
2023/03/16 11:10:56;;;;;;;;;;;3.10;99.90;;;;;;4975885;28;19933;-73
2023/03/16 11:13:26;;;;;;;;;;;3.10;99.90;;;;;;4977137;28;19926;-73
2023/03/16 11:15:56;;;;;;;;;;;3.20;99.90;;;;;;4998571;28;19977;-73
2023/03/16 11:18:28;;;;;;;;;;;3.20;99.90;;;;;;4989182;28;19952;-73
2023/03/16 11:20:55;;;;;;;;;;;3.20;99.90;;;;;;4980257;28;20404;-73
2023/03/16 11:23:28;;;;;;;;;;;3.20;99.90;;;;;;4991477;28;21168;-73
2023/03/16 11:25:57;;;;;;;;;;;3.20;99.90;;;;;;4994067;28;19933;-73
2023/03/16 11:28:28;;;;;;;;;;;3.20;99.90;;;;;;4987629;28;19940;-73
2023/03/16 11:31:02;;;;;;;;;;;3.30;99.90;;;;;;4992639;28;19932;-72
2023/03/16 11:33:30;;;;;;;;;;;3.30;99.90;;;;;;4981459;28;19937;-73
2023/03/16 11:36:01;;;;;;;;;;;3.30;99.90;;;;;;4973765;28;19930;-72
2023/03/16 11:38:32;;;;;;;;;;;3.40;99.90;;;;;;4978422;28;19926;-73
2023/03/16 11:41:01;;;;;;;;;;;3.40;99.90;;;;;;4994895;28;20352;-73
2023/03/16 11:43:46;;;;;;;;;;;3.40;99.90;;;;;;4996972;28;20186;-73
2023/03/16 11:46:15;;;;;;;;;;;3.40;99.90;;;;;;4979100;28;19926;-73
2023/03/16 11:48:45;;;;;;;;;;;3.40;99.90;;;;;;4988621;28;20395;-73
2023/03/16 11:51:15;;;;;;;;;;;3.50;99.90;;;;;;4997804;28;19932;-73
2023/03/16 11:53:46;;;;;;;;;;;3.50;99.90;;;;;;4986064;28;19976;-73
2023/03/16 11:56:18;;;;;;;;;;;3.50;99.90;;;;;;4988298;28;19934;-73
2023/03/16 11:58:57;;;;;;;;;;;3.60;99.90;;;;;;4981132;28;19926;-76
2023/03/16 12:01:27;;;;;;;;;;;3.60;99.90;;;;;;4993095;28;19957;-72
2023/03/16 12:04:15;;;;;;;;;;;3.60;99.90;;;;;;4992831;28;19960;-73
2023/03/16 12:06:49;;;;;;;;;;;3.60;99.90;;;;;;4952566;28;20337;-73
2023/03/16 12:09:38;;;;;;;;;;;3.60;99.90;;;;;;4984394;28;20556;-74
2023/03/16 12:12:11;;;;;;;;;;;3.70;99.90;;;;;;4980085;28;19930;-73
2023/03/16 12:14:40;;;;;;;;;;;3.70;99.90;;;;;;4977802;28;19936;-73
2023/03/16 12:17:09;;;;;;;;;;;3.70;99.90;;;;;;4979202;28;19976;-73
2023/03/16 12:19:39;;;;;;;;;;;3.70;99.90;;;;;;4978677;28;19941;-73
2023/03/16 12:22:09;;;;;;;;;;;3.80;99.90;;;;;;4975238;28;19929;-73
2023/03/16 12:24:41;;;;;;;;;;;3.80;99.90;;;;;;4992793;28;19937;-73
2023/03/16 12:27:13;;;;;;;;;;;3.80;99.90;;;;;;4987826;28;19940;-73
2023/03/16 12:29:42;;;;;;;;;;;3.80;99.90;;;;;;4980485;28;19964;-73
2023/03/16 12:32:10;;;;;;;;;;;3.90;99.90;;;;;;4994081;28;19930;-73
2023/03/16 12:34:41;;;;;;;;;;;3.90;99.90;;;;;;4985577;28;19925;-75
2023/03/16 12:37:22;;;;;;;;;;;3.90;99.90;;;;;;4993813;28;19926;-72
2023/03/16 12:42:26;;;;;;;;;;;3.90;99.90;;;;;;4965884;28;20032;-72
2023/03/16 12:44:55;;;;;;;;;;;4.00;99.90;;;;;;4965321;28;20044;-72
2023/03/16 12:47:27;;;;;;;;;;;4.00;99.90;;;;;;4962060;28;19992;-72
2023/03/16 12:49:55;;;;;;;;;;;4.00;99.90;;;;;;4965820;28;19933;-73
2023/03/16 12:52:22;;;;;;;;;;;4.10;99.90;;;;;;4967048;28;19930;-72
2023/03/16 12:54:50;;;;;;;;;;;4.10;99.90;;;;;;4965232;28;20348;-72
2023/03/16 12:57:18;;;;;;;;;;;4.10;99.90;;;;;;4965379;28;19934;-72
2023/03/16 12:59:49;;;;;;;;;;;4.10;99.90;;;;;;4964382;28;19926;-72
2023/03/16 13:02:18;;;;;;;;;;;4.10;99.90;;;;;;4964589;28;20032;-72
2023/03/16 13:04:46;;;;;;;;;;;4.10;99.90;;;;;;4964864;28;19942;-73
2023/03/16 13:07:17;;;;;;;;;;;4.20;99.90;;;;;;4958012;28;19977;-73
2023/03/16 13:09:47;;;;;;;;;;;4.20;99.90;;;;;;4957719;28;20392;-72
2023/03/16 13:12:22;;;;;;;;;;;4.30;99.90;;;;;;4956303;28;20050;-72
2023/03/16 13:14:53;;;;;;;;;;;4.30;99.90;;;;;;4957324;28;19934;-73
2023/03/16 13:17:24;;;;;;;;;;;4.30;99.90;;;;;;4965485;28;19965;-73
2023/03/16 13:19:59;;;;;;;;;;;4.30;99.90;;;;;;4969301;28;19977;-73
2023/03/16 13:22:26;;;;;;;;;;;4.40;99.90;;;;;;4966782;28;19976;-73
2023/03/16 13:24:54;;;;;;;;;;;4.40;99.90;;;;;;4968251;28;19930;-73
2023/03/16 13:27:23;;;;;;;;;;;4.50;99.90;;;;;;4962308;28;19934;-73
2023/03/16 13:29:56;;;;;;;;;;;4.50;99.90;;;;;;4962938;28;20444;-73
2023/03/16 13:32:24;;;;;;;;;;;4.50;99.90;;;;;;4966951;28;20030;-73
2023/03/16 13:34:52;;;;;;;;;;;4.50;99.90;;;;;;4973489;28;19937;-72
2023/03/16 13:37:20;;;;;;;;;;;4.50;99.90;;;;;;4966631;28;19934;-73
2023/03/16 13:39:57;;;;;;;;;;;4.60;99.90;;;;;;4965998;28;20302;-73
2023/03/16 13:42:25;;;;;;;;;;;4.60;99.90;;;;;;4967786;28;20032;-73
2023/03/16 13:44:52;;;;;;;;;;;4.70;99.90;;;;;;4966381;28;20351;-73
2023/03/16 13:47:21;;;;;;;;;;;4.70;99.90;;;;;;4963276;28;20342;-73
2023/03/16 13:49:49;;;;;;;;;;;4.70;99.90;;;;;;4963676;28;19926;-73
2023/03/16 13:52:20;;;;;;;;;;;4.70;99.90;;;;;;4971150;28;19926;-73
2023/03/16 13:54:47;;;;;;;;;;;4.80;99.90;;;;;;4967763;28;19926;-73
2023/03/16 13:57:14;;;;;;;;;;;4.90;99.90;;;;;;4969318;28;19926;-73
2023/03/16 13:59:42;;;;;;;;;;;4.90;99.90;;;;;;4964524;28;20538;-73
2023/03/16 14:02:16;;;;;;;;;;;4.90;99.90;;;;;;4968622;28;19933;-72
2023/03/16 14:04:44;;;;;;;;;;;5.00;99.90;;;;;;4966842;28;19953;-73
2023/03/16 14:07:15;;;;;;;;;;;5.00;99.90;;;;;;4962620;28;19930;-75
2023/03/16 14:09:42;;;;;;;;;;;5.00;99.90;;;;;;4967926;28;20404;-77
2023/03/16 14:12:13;;;;;;;;;;;5.10;99.90;;;;;;4967771;28;19933;-77
2023/03/16 14:14:40;;;;;;;;;;;5.10;99.90;;;;;;4962464;28;19927;-75
2023/03/16 14:17:10;;;;;;;;;;;5.20;99.90;;;;;;4964624;28;20419;-75
2023/03/16 14:19:41;;;;;;;;;;;5.20;99.90;;;;;;4965821;28;19926;-77
2023/03/16 14:22:13;;;;;;;;;;;5.20;99.90;;;;;;4960847;28;19938;-75
2023/03/16 14:24:41;;;;;;;;;;;5.30;99.90;;;;;;4960092;28;19930;-75
2023/03/16 14:27:29;;;;;;;;;;;5.40;99.90;;;;;;4966597;28;19926;-75
2023/03/16 14:30:00;;;;;;;;;;;5.40;99.90;;;;;;4960350;28;19926;-75
2023/03/16 14:32:28;;;;;;;;;;;5.50;99.90;;;;;;4967428;28;19926;-75
2023/03/16 14:35:12;;;;;;;;;;;5.50;99.90;;;;;;4964230;28;19962;-77
2023/03/16 14:37:41;;;;;;;;;;;5.60;99.90;;;;;;4968526;28;20468;-75
2023/03/16 14:40:20;;;;;;;;;;;5.60;99.90;;;;;;4962079;28;20340;-75
2023/03/16 14:42:47;;;;;;;;;;;5.70;99.90;;;;;;4968061;28;20002;-77
2023/03/16 14:45:15;;;;;;;;;;;5.80;99.90;;;;;;4966652;28;19996;-76
2023/03/16 14:47:42;;;;;;;;;;;5.90;99.90;;;;;;4965361;28;19962;-78